Time;durP1;ratioP1;P1;durP2;ratioP2;P2;SDS_P1;SDS_P2;PMS_P1;PMS_P2;Temp;Humidity;BMP_temperature;BMP_pressure;BME280_temperature;BME280_humidity;BME280_pressure;Samples;Min_cycle;Max_cycle;Signal;HPM_P1;HPM_P2
2021/01/16 00:01:20;;;;;;;26.25;11.80;;;;;;;-5.04;73.26;99920.69;5097629;28;20123;-69
2021/01/16 00:03:47;;;;;;;21.73;9.93;;;;;;;-4.98;73.24;99926.03;5097169;28;20048;-69
2021/01/16 00:06:28;;;;;;;18.67;8.38;;;;;;;-6.18;72.30;99855.16;5097268;28;20052;-69
2021/01/16 00:08:56;;;;;;;27.67;10.73;;;;;;;-6.07;72.75;99938.72;5097245;28;20123;-69
2021/01/16 00:11:24;;;;;;;28.88;11.15;;;;;;;-6.02;73.28;99937.38;5097134;28;20174;-69
2021/01/16 00:13:52;;;;;;;32.05;11.25;;;;;;;-5.96;73.50;99939.41;5097046;28;20089;-68
2021/01/16 00:16:20;;;;;;;27.77;10.07;;;;;;;-6.02;73.56;99942.34;5096993;28;20052;-69
2021/01/16 00:18:48;;;;;;;26.27;10.82;;;;;;;-6.18;74.05;99944.53;5097303;28;20048;-68
2021/01/16 00:21:15;;;;;;;26.95;12.15;;;;;;;-6.14;74.28;99944.84;5096891;28;20063;-69
2021/01/16 00:23:45;;;;;;;27.10;9.93;;;;;;;-5.97;74.43;99943.50;5096851;28;20036;-69
2021/01/16 00:26:13;;;;;;;23.00;10.57;;;;;;;-5.99;74.36;99932.63;5096866;28;20058;-69
2021/01/16 00:28:42;;;;;;;28.48;11.02;;;;;;;-5.91;74.69;99931.53;5097185;28;20123;-69
2021/01/16 00:31:09;;;;;;;25.50;9.77;;;;;;;-5.77;74.67;99935.75;5096703;28;20056;-68
2021/01/16 00:33:38;;;;;;;26.42;10.18;;;;;;;-5.90;74.98;99902.59;5096761;28;20044;-68
2021/01/16 00:36:07;;;;;;;25.45;9.45;;;;;;;-5.62;74.95;99921.88;5096647;28;20052;-69
2021/01/16 00:38:38;;;;;;;18.15;7.93;;;;;;;-5.32;74.98;99932.06;5096658;28;20048;-69
2021/01/16 00:41:07;;;;;;;26.08;10.05;;;;;;;-5.11;74.80;99938.47;5096595;28;20080;-69
2021/01/16 00:43:35;;;;;;;17.97;7.43;;;;;;;-5.18;74.67;99936.34;5096488;28;20064;-69
2021/01/16 00:46:02;;;;;;;24.70;10.50;;;;;;;-5.10;74.73;99943.53;5096438;28;20048;-69
2021/01/16 00:48:30;;;;;;;25.55;10.30;;;;;;;-5.11;74.71;99938.47;5096467;28;20047;-69
2021/01/16 00:51:01;;;;;;;15.52;5.07;;;;;;;-5.11;74.79;99943.44;5096402;28;20048;-69
2021/01/16 00:53:35;;;;;;;23.60;8.88;;;;;;;-5.12;75.14;99931.75;5096167;28;20102;-69
2021/01/16 00:56:12;;;;;;;23.33;9.80;;;;;;;-5.03;74.91;99943.16;5096344;28;20048;-69
2021/01/16 00:58:53;;;;;;;25.60;10.30;;;;;;;-4.95;74.99;99946.13;5095090;28;20044;-69
2021/01/16 01:01:44;;;;;;;22.17;9.05;;;;;;;-4.98;74.82;99939.34;5090598;28;20490;-69
2021/01/16 01:04:13;;;;;;;14.07;6.13;;;;;;;-5.02;74.71;99944.03;5094853;28;20071;-69
2021/01/16 01:06:40;;;;;;;26.10;9.55;;;;;;;-5.11;74.71;99945.94;5096114;28;20473;-68
2021/01/16 01:09:10;;;;;;;18.45;7.90;;;;;;;-5.09;74.67;99945.25;5096039;28;20044;-69
2021/01/16 01:11:38;;;;;;;27.70;8.82;;;;;;;-5.07;75.36;99946.22;5095987;28;20052;-69
2021/01/16 01:14:07;;;;;;;23.05;9.55;;;;;;;-4.85;75.54;99948.47;5096203;28;20075;-69
2021/01/16 01:16:34;;;;;;;19.73;8.27;;;;;;;-4.91;74.92;99953.03;5095913;28;20546;-69
2021/01/16 01:19:02;;;;;;;20.55;8.75;;;;;;;-5.04;75.29;99925.66;5095797;28;20058;-69
2021/01/16 01:21:30;;;;;;;25.23;9.77;;;;;;;-4.70;75.07;99948.56;5095822;28;20044;-69
2021/01/16 01:23:58;;;;;;;22.05;8.27;;;;;;;-5.09;75.28;99889.66;5095648;28;20139;-69
2021/01/16 01:26:26;;;;;;;24.75;9.18;;;;;;;-4.67;75.17;99949.59;5096043;28;20048;-69
2021/01/16 01:28:56;;;;;;;17.33;7.35;;;;;;;-4.57;75.19;99946.94;5095609;28;20051;-69
2021/01/16 01:31:24;;;;;;;26.83;8.35;;;;;;;-4.55;75.13;99942.91;5095621;28;20135;-69
2021/01/16 01:33:54;;;;;;;21.20;7.47;;;;;;;-6.08;75.19;99703.53;5095509;28;20072;-69
2021/01/16 01:36:23;;;;;;;17.83;7.90;;;;;;;-4.81;75.38;99933.81;5095550;28;20118;-69
2021/01/16 01:38:51;;;;;;;16.80;6.85;;;;;;;-5.03;75.94;99892.53;5095445;28;20406;-69
2021/01/16 01:41:18;;;;;;;16.92;7.32;;;;;;;-4.75;75.79;99929.22;5095297;28;20044;-69
2021/01/16 01:43:47;;;;;;;23.10;8.60;;;;;;;-4.59;75.82;99918.59;5095303;28;20060;-69
2021/01/16 01:46:18;;;;;;;22.42;8.23;;;;;;;-4.33;75.92;99933.50;5095362;28;20086;-69
2021/01/16 01:48:46;;;;;;;18.83;8.43;;;;;;;-4.57;75.83;99886.31;5095360;28;20048;-69
2021/01/16 01:51:15;;;;;;;18.83;7.97;;;;;;;-4.19;76.01;99930.22;5095220;28;20036;-69
2021/01/16 01:53:45;;;;;;;18.40;8.52;;;;;;;-4.21;75.81;99924.28;5095074;28;20545;-68
2021/01/16 01:56:16;;;;;;;22.95;9.00;;;;;;;-4.11;75.75;99926.59;5095191;28;20048;-69
2021/01/16 01:58:44;;;;;;;21.42;8.70;;;;;;;-3.96;75.84;99920.78;5095139;28;20048;-69
2021/01/16 02:01:12;;;;;;;17.92;7.10;;;;;;;-3.94;76.14;99911.78;5095093;28;20131;-69
2021/01/16 02:03:42;;;;;;;19.73;8.30;;;;;;;-3.87;76.09;99922.19;5094442;28;20083;-69
2021/01/16 02:06:10;;;;;;;21.85;8.90;;;;;;;-3.77;76.36;99919.47;5094918;28;20405;-69
2021/01/16 02:08:38;;;;;;;19.55;7.75;;;;;;;-3.82;76.37;99923.34;5094887;28;20083;-69
2021/01/16 02:11:06;;;;;;;18.15;7.47;;;;;;;-3.89;76.32;99922.88;5094781;28;20520;-69
2021/01/16 02:13:34;;;;;;;18.05;7.78;;;;;;;-3.75;76.58;99930.41;5094833;28;20127;-69
2021/01/16 02:16:09;;;;;;;18.70;8.30;;;;;;;-3.78;76.46;99924.34;5094742;28;20048;-69
2021/01/16 02:18:39;;;;;;;19.52;7.53;;;;;;;-3.71;77.08;99927.31;5094676;28;20048;-69
2021/01/16 02:21:09;;;;;;;19.95;8.23;;;;;;;-3.71;76.39;99923.94;5094995;28;20517;-69
2021/01/16 02:23:49;;;;;;;19.35;7.53;;;;;;;-3.73;76.42;99920.50;5094518;28;20044;-69
2021/01/16 02:26:35;;;;;;;22.15;8.25;;;;;;;-3.67;76.50;99920.88;5094633;28;20109;-69
2021/01/16 02:29:09;;;;;;;15.52;7.15;;;;;;;-3.62;76.67;99924.47;5094517;28;20486;-68
2021/01/16 02:31:40;;;;;;;17.77;6.70;;;;;;;-3.46;76.95;99927.13;5094491;28;20052;-69
2021/01/16 02:34:14;;;;;;;15.23;6.75;;;;;;;-3.49;76.68;99916.94;5094371;28;20051;-69
2021/01/16 02:37:07;;;;;;;18.45;7.15;;;;;;;-3.34;76.66;99922.84;5094414;28;20098;-69
2021/01/16 02:39:44;;;;;;;16.70;7.55;;;;;;;-3.28;77.03;99928.16;5094323;28;20075;-69
2021/01/16 02:42:16;;;;;;;20.10;6.65;;;;;;;-3.24;77.35;99920.09;5094316;28;20414;-68
2021/01/16 02:44:56;;;;;;;19.98;7.15;;;;;;;-3.29;77.21;99923.09;5094122;28;20036;-69
2021/01/16 02:47:31;;;;;;;15.48;7.05;;;;;;;-3.26;77.53;99926.59;5094263;28;20134;-68
2021/01/16 02:50:02;;;;;;;14.27;5.78;;;;;;;-3.26;77.26;99920.78;5094115;28;20482;-69
2021/01/16 02:52:39;;;;;;;12.00;5.47;;;;;;;-3.24;77.10;99924.22;5092766;28;20048;-69
2021/01/16 02:55:09;;;;;;;12.45;5.43;;;;;;;-3.29;77.21;99918.97;5094024;28;20040;-69
2021/01/16 02:57:36;;;;;;;12.82;5.88;;;;;;;-3.27;76.78;99919.91;5094036;28;20460;-69
2021/01/16 03:00:08;;;;;;;12.73;6.03;;;;;;;-3.16;77.74;99918.88;5093968;28;20436;-69
2021/01/16 03:02:37;;;;;;;14.85;6.28;;;;;;;-3.21;77.69;99921.88;5094239;28;20060;-69
2021/01/16 03:05:06;;;;;;;14.65;6.90;;;;;;;-3.14;77.47;99917.31;5093869;28;20482;-69
2021/01/16 03:07:35;;;;;;;9.95;4.78;;;;;;;-3.20;77.56;99926.09;5093909;28;20067;-68
2021/01/16 03:10:06;;;;;;;17.10;7.50;;;;;;;-3.16;77.72;99923.00;5092616;28;20048;-69
2021/01/16 03:12:36;;;;;;;12.68;6.30;;;;;;;-3.13;77.42;99924.06;5093845;28;20036;-69
2021/01/16 03:15:08;;;;;;;16.92;7.32;;;;;;;-3.14;77.38;99911.50;5091709;28;20516;-69
2021/01/16 03:17:44;;;;;;;16.30;6.28;;;;;;;-3.12;77.65;99930.75;5093810;28;20051;-69
2021/01/16 03:20:23;;;;;;;17.63;6.72;;;;;;;-3.10;77.51;99914.25;5094186;28;20389;-69
2021/01/16 03:22:54;;;;;;;14.13;6.55;;;;;;;-3.16;77.50;99918.00;5093673;28;20121;-69
2021/01/16 03:25:23;;;;;;;17.92;7.50;;;;;;;-3.15;77.34;99924.75;5093644;28;20051;-69
2021/01/16 03:27:51;;;;;;;15.25;5.93;;;;;;;-3.30;77.87;99926.34;5093679;28;20497;-69
2021/01/16 03:30:21;;;;;;;12.93;6.32;;;;;;;-3.18;77.34;99925.44;5093953;28;20044;-69
2021/01/16 03:32:50;;;;;;;19.10;7.25;;;;;;;-3.14;77.77;99922.31;5093572;28;20486;-69
2021/01/16 03:35:21;;;;;;;16.35;6.88;;;;;;;-3.10;77.34;99924.22;5093632;28;20060;-69
2021/01/16 03:37:52;;;;;;;14.48;5.72;;;;;;;-3.04;77.85;99924.56;5093555;28;20048;-69
2021/01/16 03:40:20;;;;;;;14.43;5.65;;;;;;;-3.13;77.21;99875.78;5093562;28;20470;-69
2021/01/16 03:42:48;;;;;;;10.43;4.40;;;;;;;-2.73;76.76;99920.50;5093411;28;20047;-69
2021/01/16 03:45:19;;;;;;;8.63;4.15;;;;;;;-2.71;75.56;99916.44;5093522;28;20073;-69
2021/01/16 03:47:48;;;;;;;11.45;4.50;;;;;;;-2.59;74.68;99921.25;5093828;28;20060;-69
2021/01/16 03:50:16;;;;;;;9.05;4.00;;;;;;;-2.55;73.71;99919.78;5093470;28;20135;-68
2021/01/16 03:52:45;;;;;;;11.95;4.90;;;;;;;-2.50;73.31;99925.91;5093223;28;20132;-68
2021/01/16 03:55:13;;;;;;;12.32;4.50;;;;;;;-2.44;73.15;99929.59;5093424;28;20493;-69
2021/01/16 03:57:41;;;;;;;11.75;4.18;;;;;;;-2.37;72.60;99930.75;5093335;28;20117;-69
2021/01/16 04:00:10;;;;;;;8.18;3.92;;;;;;;-2.42;72.01;99934.66;5093380;28;20559;-68
2021/01/16 04:02:38;;;;;;;7.05;3.17;;;;;;;-2.46;71.62;99925.28;5093781;28;20105;-68
2021/01/16 04:05:09;;;;;;;7.75;3.47;;;;;;;-2.50;71.05;99930.91;5093677;28;20055;-68
2021/01/16 04:07:36;;;;;;;7.63;2.95;;;;;;;-2.42;70.25;99935.50;5093350;28;20044;-68
2021/01/16 04:10:06;;;;;;;6.18;3.17;;;;;;;-2.42;70.01;99934.66;5093209;28;20048;-68
2021/01/16 04:12:34;;;;;;;7.18;3.15;;;;;;;-2.44;69.53;99937.06;5093502;28;20048;-68
2021/01/16 04:15:02;;;;;;;7.68;3.20;;;;;;;-2.45;69.82;99929.50;5093188;28;20060;-69
2021/01/16 04:17:31;;;;;;;6.32;2.92;;;;;;;-2.48;69.78;99934.31;5093229;28;20047;-69
2021/01/16 04:19:59;;;;;;;5.10;2.47;;;;;;;-2.50;69.46;99941.75;5093461;28;20063;-69
2021/01/16 04:22:27;;;;;;;5.95;2.83;;;;;;;-2.47;69.35;99936.06;5093180;28;20059;-69
2021/01/16 04:24:55;;;;;;;6.55;3.00;;;;;;;-2.42;68.77;99934.66;5093014;28;20070;-68
2021/01/16 04:27:24;;;;;;;9.40;3.15;;;;;;;-2.42;68.95;99939.66;5096898;28;20048;-69
2021/01/16 04:29:51;;;;;;;8.85;3.35;;;;;;;-2.48;69.11;99931.84;5097095;28;20120;-68
2021/01/16 04:32:20;;;;;;;7.25;3.05;;;;;;;-2.51;68.68;99944.16;5096789;28;20047;-68
2021/01/16 04:34:48;;;;;;;7.78;3.38;;;;;;;-2.51;68.97;99944.16;5096676;28;20135;-68
2021/01/16 04:37:16;;;;;;;8.10;3.30;;;;;;;-2.49;68.96;99947.59;5096706;28;20051;-68
2021/01/16 04:39:44;;;;;;;6.32;3.05;;;;;;;-2.50;68.72;99945.88;5096618;28;20386;-68
2021/01/16 04:42:14;;;;;;;6.47;3.17;;;;;;;-2.53;68.92;99948.22;5096584;28;20090;-69
2021/01/16 04:44:45;;;;;;;9.00;3.45;;;;;;;-2.72;68.46;99913.88;5096499;28;20093;-68
2021/01/16 04:47:22;;;;;;;8.65;2.78;;;;;;;-2.58;68.25;99949.59;5096466;28;20059;-69
2021/01/16 04:49:51;;;;;;;6.38;2.97;;;;;;;-2.51;68.81;99949.16;5096476;28;20044;-68
2021/01/16 04:52:24;;;;;;;6.90;3.00;;;;;;;-2.53;68.26;99953.19;5096150;28;20060;-69
2021/01/16 04:54:55;;;;;;;7.75;3.55;;;;;;;-2.51;68.87;99951.66;5096365;28;20055;-68
2021/01/16 04:57:24;;;;;;;11.55;3.55;;;;;;;-2.49;68.47;99952.59;5096296;28;20047;-69
2021/01/16 04:59:54;;;;;;;7.10;3.55;;;;;;;-2.49;68.34;99945.09;5096232;28;20056;-69
2021/01/16 05:02:23;;;;;;;9.05;3.97;;;;;;;-2.50;68.29;99945.88;5096224;28;20111;-68
2021/01/16 05:04:52;;;;;;;9.13;3.47;;;;;;;-2.55;68.30;99948.13;5096124;28;20451;-68
2021/01/16 05:07:20;;;;;;;6.90;3.15;;;;;;;-2.60;68.08;99956.13;5096078;28;20052;-69
2021/01/16 05:09:48;;;;;;;9.40;3.25;;;;;;;-2.74;68.43;99956.25;5096077;28;20432;-68
2021/01/16 05:12:38;;;;;;;7.60;3.17;;;;;;;-2.69;68.79;99958.13;5095975;28;20130;-69
2021/01/16 05:15:08;;;;;;;8.07;3.10;;;;;;;-2.77;68.63;99956.06;5096347;28;20056;-68
2021/01/16 05:17:41;;;;;;;7.50;3.13;;;;;;;-2.81;68.31;99953.31;5096269;28;20048;-68
2021/01/16 05:20:11;;;;;;;6.45;3.30;;;;;;;-2.74;68.33;99956.25;5095932;28;20140;-68
2021/01/16 05:22:39;;;;;;;6.30;3.03;;;;;;;-2.72;68.34;99959.69;5096092;28;20097;-68
2021/01/16 05:25:08;;;;;;;6.50;2.90;;;;;;;-2.77;68.38;99953.56;5096058;28;20119;-69
2021/01/16 05:27:37;;;;;;;6.57;2.92;;;;;;;-2.85;68.74;99962.25;5095685;28;20127;-68
2021/01/16 05:30:10;;;;;;;9.77;3.30;;;;;;;-2.94;68.52;99956.75;5095715;28;20507;-69
2021/01/16 05:32:38;;;;;;;9.60;3.50;;;;;;;-3.10;68.64;99949.19;5096031;28;20056;-69
2021/01/16 05:35:17;;;;;;;8.82;3.60;;;;;;;-3.05;69.18;99947.81;5095517;28;20199;-69
2021/01/16 05:37:48;;;;;;;7.28;3.15;;;;;;;-2.92;69.21;99950.22;5094751;28;20059;-68
2021/01/16 05:40:18;;;;;;;5.75;3.17;;;;;;;-2.81;68.55;99948.34;5095459;28;20482;-68
2021/01/16 05:42:46;;;;;;;7.55;3.30;;;;;;;-2.83;69.21;99945.72;5095980;28;20051;-69
2021/01/16 05:45:17;;;;;;;8.15;3.17;;;;;;;-2.76;69.28;99947.78;5095258;28;20047;-68
2021/01/16 05:47:48;;;;;;;6.43;3.42;;;;;;;-2.77;68.54;99946.09;5095423;28;20119;-69
2021/01/16 05:50:16;;;;;;;7.65;3.42;;;;;;;-2.89;68.85;99935.41;5095564;28;20134;-68
2021/01/16 05:52:44;;;;;;;6.57;3.38;;;;;;;-2.90;69.34;99943.66;5095012;28;20063;-68
2021/01/16 05:55:13;;;;;;;9.82;3.75;;;;;;;-2.88;68.84;99951.25;5095130;28;20051;-68
2021/01/16 05:57:46;;;;;;;7.32;3.22;;;;;;;-2.99;68.97;99948.16;5095159;28;20058;-68
2021/01/16 06:00:23;;;;;;;7.05;3.05;;;;;;;-3.01;69.07;99944.72;5095060;28;20043;-68
2021/01/16 06:02:52;;;;;;;14.27;3.22;;;;;;;-3.00;68.80;99951.41;5095028;28;20163;-69
2021/01/16 06:05:24;;;;;;;7.28;3.28;;;;;;;-2.93;69.00;99953.47;5094920;28;20056;-69
2021/01/16 06:07:53;;;;;;;8.55;3.53;;;;;;;-3.00;68.78;99953.06;5094995;28;20048;-68
2021/01/16 06:10:21;;;;;;;6.57;3.75;;;;;;;-3.01;68.48;99947.22;5094864;28;20071;-68
2021/01/16 06:12:52;;;;;;;5.63;2.67;;;;;;;-3.05;68.79;99955.31;5094838;28;20512;-69
2021/01/16 06:15:22;;;;;;;5.88;2.75;;;;;;;-2.99;69.26;99958.13;5094782;28;20043;-68
2021/01/16 06:17:51;;;;;;;7.68;3.78;;;;;;;-2.98;68.46;99959.00;5094748;28;20047;-68
2021/01/16 06:20:20;;;;;;;7.38;2.95;;;;;;;-3.01;69.27;99963.81;5094735;28;20059;-68
2021/01/16 06:22:50;;;;;;;11.55;3.50;;;;;;;-3.04;68.64;99964.50;5094647;28;20169;-68
2021/01/16 06:25:19;;;;;;;;;;;;;;;-2.98;68.95;99969.00;5094980;28;20161;-68
2021/01/16 06:27:51;;;;;;;5.88;2.38;;;;;;;-2.82;68.83;99972.44;5094546;28;19947;-69
2021/01/16 06:30:22;;;;;;;7.45;3.20;;;;;;;-2.83;68.49;99970.69;5094577;28;20056;-68
2021/01/16 06:32:53;;;;;;;6.03;2.67;;;;;;;-2.82;68.31;99972.44;5094478;28;20052;-69
2021/01/16 06:35:27;;;;;;;6.68;2.80;;;;;;;-2.81;68.59;99973.31;5094478;28;20435;-69
2021/01/16 06:37:55;;;;;;;5.88;2.78;;;;;;;-2.67;68.34;99974.06;5094384;28;20097;-69
2021/01/16 06:40:30;;;;;;;6.82;3.15;;;;;;;-2.74;68.27;99963.75;5094350;28;20134;-68
2021/01/16 06:42:59;;;;;;;8.35;3.35;;;;;;;-2.64;68.10;99979.22;5094301;28;20048;-68
2021/01/16 06:45:29;;;;;;;6.95;3.00;;;;;;;-2.64;67.63;99976.75;5093094;28;20074;-69
2021/01/16 06:48:00;;;;;;;7.00;2.95;;;;;;;-2.54;67.82;99986.47;5094124;28;20047;-69
2021/01/16 06:50:29;;;;;;;6.97;3.38;;;;;;;-2.49;67.17;99988.41;5094188;28;20101;-69
2021/01/16 06:52:57;;;;;;;5.45;2.70;;;;;;;-2.49;67.33;99988.41;5093884;28;20051;-68
2021/01/16 06:55:31;;;;;;;8.02;2.80;;;;;;;-2.44;67.48;99996.16;5094092;28;20048;-69
2021/01/16 06:58:16;;;;;;;8.23;2.60;;;;;;;-2.41;67.01;99981.34;5094103;28;20051;-68
2021/01/16 07:00:54;;;;;;;7.03;2.60;;;;;;;-2.35;67.95;99981.72;5094116;28;20076;-69
2021/01/16 07:03:26;;;;;;;5.80;2.42;;;;;;;-2.32;67.64;99981.84;5093956;28;20048;-69
2021/01/16 07:05:55;;;;;;;;;;;;;;;-2.35;68.00;99986.72;5095001;28;20048;-69
2021/01/16 07:08:24;;;;;;;5.68;2.90;;;;;;;-2.39;67.96;99983.16;5093992;28;19920;-68
2021/01/16 07:10:53;;;;;;;6.10;2.55;;;;;;;-2.45;68.19;99989.47;5093842;28;20056;-68
2021/01/16 07:13:21;;;;;;;8.27;3.20;;;;;;;-2.54;68.13;99989.81;5093845;28;20044;-69
2021/01/16 07:15:53;;;;;;;6.43;2.67;;;;;;;-2.30;67.80;100000.28;5093796;28;20154;-69
2021/01/16 07:18:21;;;;;;;6.70;2.85;;;;;;;-1.65;67.55;99989.66;5093809;28;20494;-69
2021/01/16 07:20:49;;;;;;;7.20;3.15;;;;;;;-0.86;66.35;99986.16;5093716;28;20080;-69
2021/01/16 07:23:18;;;;;;;6.32;2.80;;;;;;;-0.29;64.75;99996.47;5093702;28;20501;-68
2021/01/16 07:25:46;;;;;;;7.90;2.80;;;;;;;-1.54;64.23;99878.50;5093660;28;20052;-68
2021/01/16 07:28:15;;;;;;;7.53;3.03;;;;;;;-1.48;64.73;99991.41;5093731;28;20044;-68
2021/01/16 07:30:44;;;;;;;7.95;3.38;;;;;;;-1.85;65.05;100004.41;5092430;28;20076;-68
2021/01/16 07:33:14;;;;;;;5.68;2.80;;;;;;;-2.14;65.72;99967.88;5093637;28;20044;-68
2021/01/16 07:35:46;;;;;;;;;;;;;;;-2.02;65.78;100008.53;5093986;28;20052;-67
2021/01/16 07:38:15;;;;;;;6.93;3.33;;;;;;;-1.90;65.98;99999.19;5093670;28;19920;-67
2021/01/16 07:40:45;;;;;;;8.45;3.50;;;;;;;-1.53;65.50;99997.81;5093535;28;20044;-68
2021/01/16 07:43:50;;;;;;;6.32;3.05;;;;;;;-1.34;65.41;99993.75;5093568;28;20486;-68
2021/01/16 07:46:21;;;;;;;;;;;;;;;-1.14;64.99;99993.09;5090893;28;20125;-67
2021/01/16 07:48:55;;;;;;;4.18;2.30;;;;;;;-1.13;64.34;99997.34;5093553;28;19924;-67
2021/01/16 07:51:30;;;;;;;7.18;2.90;;;;;;;-1.37;64.51;99994.47;5093478;28;20056;-67
2021/01/16 07:54:07;;;;;;;7.25;2.70;;;;;;;-1.51;64.10;99996.25;5093315;28;20082;-68
2021/01/16 07:56:40;;;;;;;4.82;2.50;;;;;;;-1.60;64.13;99988.25;5093419;28;20406;-67
2021/01/16 07:59:15;;;;;;;6.95;2.65;;;;;;;-1.77;64.30;99996.53;5093462;28;20138;-68
2021/01/16 08:02:03;;;;;;;6.38;2.72;;;;;;;-1.76;63.77;100003.25;5096287;28;20044;-67
2021/01/16 08:04:38;;;;;;;5.40;2.95;;;;;;;-1.70;64.23;100001.06;5097272;28;20071;-68
2021/01/16 08:07:08;;;;;;;6.93;3.35;;;;;;;-1.76;64.19;100003.25;5097308;28;20387;-67
2021/01/16 08:09:58;;;;;;;6.35;2.80;;;;;;;-1.72;63.48;100005.13;5097293;28;20047;-67
2021/01/16 08:12:27;;;;;;;7.65;2.72;;;;;;;-1.76;63.50;99983.25;5097166;28;20052;-68
2021/01/16 08:15:00;;;;;;;9.63;2.83;;;;;;;-1.69;63.45;100010.31;5097144;28;20123;-67
2021/01/16 08:17:38;;;;;;;6.35;2.38;;;;;;;-1.58;63.32;99994.19;5097476;28;20056;-67
2021/01/16 08:20:16;;;;;;;7.97;3.03;;;;;;;-1.06;62.89;100001.88;5097114;28;20044;-67
2021/01/16 08:22:51;;;;;;;5.38;2.65;;;;;;;-0.61;62.07;100003.25;5097020;28;20402;-66
2021/01/16 08:25:23;;;;;;;4.85;2.13;;;;;;;-0.30;61.58;100011.44;5096809;28;20051;-67
2021/01/16 08:27:53;;;;;;;5.15;1.95;;;;;;;-0.11;61.10;100002.34;5096892;28;20040;-66
2021/01/16 08:30:23;;;;;;;6.10;2.35;;;;;;;-0.06;60.31;100003.44;5096777;28;20052;-67
2021/01/16 08:32:58;;;;;;;6.22;2.45;;;;;;;0.31;59.85;100000.09;5096792;28;20051;-67
2021/01/16 08:35:28;;;;;;;3.47;1.85;;;;;;;0.37;58.90;99990.31;5096740;28;20066;-66
2021/01/16 08:38:22;;;;;;;6.78;2.53;;;;;;;0.55;58.86;100001.19;5096721;28;20048;-67
2021/01/16 08:41:04;;;;;;;4.22;2.05;;;;;;;0.69;56.98;100000.13;5095554;28;20059;-67
2021/01/16 08:43:34;;;;;;;5.45;1.95;;;;;;;0.82;57.10;100006.50;5096584;28;20052;-66
2021/01/16 08:46:13;;;;;;;3.42;1.60;;;;;;;0.76;56.82;100002.09;5096524;28;20054;-67
2021/01/16 08:48:56;;;;;;;4.18;1.75;;;;;;;0.91;56.29;100002.72;5096562;28;20056;-67
2021/01/16 08:51:38;;;;;;;5.10;2.17;;;;;;;1.11;55.90;100009.47;5096385;28;20043;-67
2021/01/16 08:54:14;;;;;;;5.05;1.95;;;;;;;1.32;55.33;100012.00;5096253;28;20048;-68
2021/01/16 08:56:43;;;;;;;4.20;2.03;;;;;;;1.33;54.65;100007.03;5096303;28;20123;-69
2021/01/16 08:59:22;;;;;;;4.15;1.73;;;;;;;1.46;54.35;100005.03;5096351;28;20048;-69
2021/01/16 09:01:53;;;;;;;3.65;1.70;;;;;;;1.66;54.18;100004.16;5096218;28;20058;-67
2021/01/16 09:04:23;;;;;;;4.07;1.98;;;;;;;1.65;53.34;100015.88;5096068;28;20040;-68
2021/01/16 09:06:52;;;;;;;4.55;1.92;;;;;;;1.56;53.48;100012.16;5096597;28;20093;-68
2021/01/16 09:09:25;;;;;;;4.82;1.90;;;;;;;1.48;53.47;99958.16;5096097;28;20052;-68
2021/01/16 09:12:11;;;;;;;11.35;2.55;;;;;;;1.90;53.21;100020.19;5094855;28;20387;-67
2021/01/16 09:14:41;;;;;;;4.40;1.90;;;;;;;1.73;53.80;100016.16;5095989;28;20055;-66
2021/01/16 09:17:16;;;;;;;4.33;2.50;;;;;;;1.74;53.55;100015.38;5095918;28;20044;-65
2021/01/16 09:19:45;;;;;;;4.80;2.17;;;;;;;1.87;54.13;100025.13;5095877;28;20077;-67
2021/01/16 09:22:19;;;;;;;4.53;2.05;;;;;;;1.65;53.69;100018.41;5095720;28;20497;-66
2021/01/16 09:24:48;;;;;;;4.93;2.50;;;;;;;1.59;54.17;100027.34;5095714;28;20050;-68
2021/01/16 09:27:27;;;;;;;4.38;2.47;;;;;;;1.52;54.12;100020.34;5095960;28;20052;-68
2021/01/16 09:29:56;;;;;;;7.67;2.80;;;;;;;1.51;54.13;100019.50;5095709;28;20444;-68
2021/01/16 09:32:33;;;;;;;5.10;2.63;;;;;;;1.47;54.29;100022.69;5061077;28;20105;-68
2021/01/16 09:35:06;;;;;;;6.20;3.10;;;;;;;1.58;54.25;100018.09;5095567;28;20119;-69
2021/01/16 09:37:37;;;;;;;5.20;2.88;;;;;;;1.56;54.17;100019.69;5095505;28;20127;-68
2021/01/16 09:40:11;;;;;;;5.55;2.92;;;;;;;1.47;55.20;100020.16;5095519;28;20040;-68
2021/01/16 09:42:47;;;;;;;6.95;3.10;;;;;;;1.55;54.56;100020.47;5095386;28;20063;-68
2021/01/16 09:45:17;;;;;;;5.60;2.60;;;;;;;1.76;55.18;100016.28;5095297;28;20044;-69
2021/01/16 09:47:56;;;;;;;4.88;2.35;;;;;;;1.63;54.66;100019.13;5095351;28;20044;-68
2021/01/16 09:50:28;;;;;;;6.85;3.38;;;;;;;1.84;54.05;100014.94;5094076;28;20130;-68
2021/01/16 09:53:04;;;;;;;7.40;3.22;;;;;;;1.94;53.71;100007.78;5095078;28;20047;-69
2021/01/16 09:55:38;;;;;;;8.63;3.15;;;;;;;1.99;54.68;100006.31;5095172;28;20048;-70
2021/01/16 09:58:28;;;;;;;7.78;3.10;;;;;;;1.80;54.33;100015.63;5095150;28;20048;-69
2021/01/16 10:01:13;;;;;;;6.72;2.60;;;;;;;1.65;53.74;100012.50;5095045;28;20048;-69
2021/01/16 10:03:42;;;;;;;8.75;3.42;;;;;;;1.44;53.17;99997.41;5094939;28;20432;-68
2021/01/16 10:06:13;;;;;;;6.65;3.20;;;;;;;1.60;53.26;100011.47;5093708;28;20048;-68
2021/01/16 10:08:45;;;;;;;8.20;3.25;;;;;;;1.46;53.36;100010.91;5094978;28;20521;-69
2021/01/16 10:11:42;;;;;;;6.38;3.05;;;;;;;1.40;53.33;100012.31;5094900;28;20448;-70
2021/01/16 10:14:12;;;;;;;8.70;2.90;;;;;;;1.58;52.89;100020.59;5094859;28;20051;-69
2021/01/16 10:16:40;;;;;;;;;;;;;;;1.47;52.32;100012.63;5095454;28;20440;-68
2021/01/16 10:19:12;;;;;;;5.35;3.15;;;;;;;1.53;52.26;99979.31;5094785;28;20389;-69
2021/01/16 10:21:52;;;;;;;5.80;2.78;;;;;;;1.86;52.21;100003.28;5094702;28;20119;-70
2021/01/16 10:24:24;;;;;;;7.93;3.30;;;;;;;1.91;52.38;99996.78;5094265;28;20089;-69
2021/01/16 10:26:55;;;;;;;6.72;3.15;;;;;;;2.38;51.89;99994.38;5094925;28;20135;-70
2021/01/16 10:29:35;;;;;;;6.35;3.05;;;;;;;2.73;51.88;99988.91;5094571;28;20058;-69
2021/01/16 10:32:20;;;;;;;6.72;3.35;;;;;;;2.97;51.12;99999.00;5093272;28;20047;-68
2021/01/16 10:34:49;;;;;;;8.95;3.65;;;;;;;2.88;52.28;99995.31;5094504;28;20121;-68
2021/01/16 10:37:17;;;;;;;6.22;2.85;;;;;;;3.22;51.49;99990.59;5094395;28;20056;-68
2021/01/16 10:39:48;;;;;;;6.00;3.35;;;;;;;3.20;51.03;99987.16;5094432;28;20044;-68
2021/01/16 10:42:18;;;;;;;7.88;4.05;;;;;;;3.20;50.35;99985.50;5094271;28;20110;-67
2021/01/16 10:44:46;;;;;;;8.15;4.05;;;;;;;3.52;50.59;99983.19;5094212;28;20048;-67
2021/01/16 10:47:32;;;;;;;7.15;3.72;;;;;;;3.73;50.69;99974.63;5094233;28;20109;-67
2021/01/16 10:50:06;;;;;;;7.28;3.60;;;;;;;3.69;50.39;99982.06;5094248;28;20044;-67
2021/01/16 10:52:35;;;;;;;8.02;3.80;;;;;;;3.59;50.33;99980.03;5094227;28;20051;-67
2021/01/16 10:55:06;;;;;;;6.28;3.05;;;;;;;3.45;50.28;99982.13;5092994;28;20044;-68
2021/01/16 10:57:43;;;;;;;6.57;3.45;;;;;;;3.12;49.78;99983.56;5094146;28;20459;-68
2021/01/16 11:00:14;;;;;;;6.25;3.38;;;;;;;2.80;51.05;99981.59;5094071;28;20052;-69
2021/01/16 11:02:47;;;;;;;5.85;2.83;;;;;;;2.67;51.67;99975.25;5094085;28;20052;-68
2021/01/16 11:05:25;;;;;;;7.82;3.13;;;;;;;2.64;52.07;99973.47;5092779;28;20097;-67
2021/01/16 11:07:56;;;;;;;5.18;2.78;;;;;;;2.38;52.58;99969.19;5094004;28;20120;-67
2021/01/16 11:10:36;;;;;;;6.95;3.05;;;;;;;2.00;52.37;99971.94;5094202;28;20440;-69
2021/01/16 11:13:21;;;;;;;5.72;2.75;;;;;;;1.69;54.11;99974.09;5093914;28;20048;-68
2021/01/16 11:15:53;;;;;;;7.57;3.13;;;;;;;1.64;53.46;99970.53;5093887;28;20048;-67
2021/01/16 11:18:41;;;;;;;5.40;2.80;;;;;;;1.59;54.25;99972.00;5094140;28;20079;-67
2021/01/16 11:21:11;;;;;;;5.30;2.63;;;;;;;1.51;54.17;99958.28;5093778;28;20048;-68
2021/01/16 11:24:01;;;;;;;5.88;3.15;;;;;;;1.54;54.62;99948.34;5092594;28;20121;-67
2021/01/16 11:26:46;;;;;;;5.40;3.28;;;;;;;1.87;54.06;99950.50;5093515;28;20052;-68
2021/01/16 11:29:19;;;;;;;5.95;2.95;;;;;;;2.00;54.15;99955.19;5093707;28;20051;-68
2021/01/16 11:31:50;;;;;;;6.70;2.90;;;;;;;2.17;53.09;99950.78;5093609;28;20127;-68
2021/01/16 11:34:25;;;;;;;7.20;3.05;;;;;;;2.65;52.84;99952.53;5093619;28;20043;-68
2021/01/16 11:37:01;;;;;;;6.60;3.23;;;;;;;2.97;52.18;99942.69;5096842;28;20099;-68
2021/01/16 11:39:44;;;;;;;4.70;2.35;;;;;;;2.94;51.58;99940.94;5097816;28;20051;-69
2021/01/16 11:42:13;;;;;;;;;;;;;;;2.87;52.01;99941.53;5098158;28;20090;-68
2021/01/16 11:44:52;;;;;;;6.53;2.95;;;;;;;2.63;51.42;99934.00;5097641;28;20011;-69
2021/01/16 11:47:21;;;;;;;5.40;2.70;;;;;;;2.63;51.57;99928.09;5097615;28;20517;-68
2021/01/16 11:49:52;;;;;;;4.75;2.53;;;;;;;2.68;52.41;99926.59;5097682;28;20127;-68
2021/01/16 11:52:20;;;;;;;5.18;2.70;;;;;;;2.45;52.31;99923.25;5097301;28;20417;-68
2021/01/16 11:54:49;;;;;;;5.32;2.90;;;;;;;2.33;52.70;99921.97;5097908;28;20455;-68